All
Lowendal Island Airport YLOW Weather
There is no TAF data available at YLOW. Showing TAF data for YBWX (18 mi SW).
BWB Terminal Area Forecast (no data for YLOW)
| Date | Time (AWST) | Flight Rules | Wind Dir. | Speed | Type | Height AGL (ft) | Visibility | Remarks | ||||||
|---|---|---|---|---|---|---|---|---|---|---|---|---|---|---|
| 06-Sep | 07:00AM | VFR | 210° | 24 kt | Scattered | 3,000 | >= 6 miles | |||||||
| 06-Sep | 06:00AM | VFR | 210° | 24 kt | Scattered | 3,000 | >= 6 miles | |||||||
| 06-Sep | 05:00AM | VFR | 210° | 24 kt | Scattered | 3,000 | >= 6 miles | |||||||
| 06-Sep | 04:00AM | VFR | 210° | 24 kt | Scattered | 3,000 | >= 6 miles | |||||||
| 06-Sep | 03:00AM | VFR | 210° | 24 kt | Scattered | 3,000 | >= 6 miles | |||||||
| 06-Sep | 02:00AM | VFR | 210° | 24 kt | Scattered | 3,000 | >= 6 miles | |||||||
| 06-Sep | 01:00AM | VFR | 210° | 24 kt | Scattered | 3,000 | >= 6 miles | |||||||
| 06-Sep | 12:00AM | VFR | 210° | 24 kt | Scattered | 3,000 | >= 6 miles | |||||||
| 05-Sep | 11:00PM | VFR | 210° | 24 kt | Scattered | 3,000 | >= 6 miles | |||||||
There is no METAR data available at YLOW. Showing METAR data for YBWX (18 mi SW).
Recent BWB METAR history (no data for YLOW)
| Date | Time (AWST) | Flight Rules | Wind Dir. | Speed | Type | Height AGL (ft) | Visibility | Temp (°C) | Temp (°F) | Dew Point (°C) | Dew Point (°F) | Rel. Humid. | Pressure | Density Altitude | Remarks |
|---|---|---|---|---|---|---|---|---|---|---|---|---|---|---|---|
| 05-Sep | 11:00PM | n/a | 220° | 24 kt | Missing | 21° | 69° | 16° | 60° | 73% | 1017 mb | 634 ft | |||
| 05-Sep | 10:00PM | n/a | 220° | 26 kt | Missing | 21° | 69° | 17° | 62° | 78% | 1018 mb | 604 ft | |||
| 05-Sep | 09:00PM | n/a | 230° | 22 kt | Missing | 22° | 71° | 16° | 60° | 69% | 1017 mb | 754 ft | |||
| 05-Sep | 08:00PM | n/a | 240° | 22 kt | Missing | 22° | 71° | 17° | 62° | 73% | 1017 mb | 754 ft | |||
| 05-Sep | 07:00PM | n/a | 250° | 17 kt | Missing | 22° | 71° | 18° | 64° | 78% | 1016 mb | 784 ft | |||
| 05-Sep | 06:00PM | n/a | 250° | 18 kt | Missing | 23° | 73° | 18° | 64° | 73% | 1016 mb | 904 ft | |||
| 05-Sep | 05:00PM | n/a | 250° | 20 kt | Missing | 25° | 77° | 17° | 62° | 61% | 1015 mb | 1,173 ft | |||
| 05-Sep | 04:00PM | n/a | 250° | 17 kt | Missing | 25° | 77° | 17° | 62° | 61% | 1015 mb | 1,173 ft | |||
| 05-Sep | 03:00PM | n/a | 240° | 14 kt | Missing | 26° | 78° | 16° | 60° | 54% | 1015 mb | 1,293 ft | |||
| 05-Sep | 02:00PM | n/a | 230° | 15 kt | Missing | 26° | 78° | 16° | 60° | 54% | 1016 mb | 1,264 ft | |||
| 05-Sep | 01:00PM | n/a | 220° | 15 kt | Missing | 25° | 77° | 17° | 62° | 61% | 1016 mb | 1,144 ft | |||
| 05-Sep | 12:00PM | n/a | 210° | 14 kt | Missing | 25° | 77° | 17° | 62° | 61% | 1017 mb | 1,114 ft | |||
| 05-Sep | 11:00AM | n/a | 210° | 15 kt | Missing | 24° | 75° | 16° | 60° | 61% | 1018 mb | 964 ft | |||
| 05-Sep | 10:00AM | n/a | 210° | 14 kt | Missing | 23° | 73° | 16° | 60° | 65% | 1018 mb | 844 ft | |||
| 05-Sep | 09:00AM | n/a | 200° | 16 kt | Missing | 23° | 73° | 16° | 60° | 65% | 1018 mb | 844 ft | |||
| 05-Sep | 08:00AM | n/a | 190° | 16 kt | Missing | 22° | 71° | 16° | 60° | 69% | 1018 mb | 724 ft | |||
| 05-Sep | 07:00AM | n/a | 190° | 18 kt | Missing | 21° | 69° | 16° | 60° | 73% | 1017 mb | 634 ft | |||
| 05-Sep | 06:00AM | n/a | 200° | 18 kt | Missing | 21° | 69° | 16° | 60° | 73% | 1016 mb | 664 ft | |||
| 05-Sep | 05:00AM | n/a | 200° | 18 kt | Missing | 21° | 69° | 16° | 60° | 73% | 1016 mb | 664 ft | |||
| 05-Sep | 04:00AM | n/a | 200° | 18 kt | Missing | 22° | 71° | 16° | 60° | 69% | 1016 mb | 784 ft | |||
| 05-Sep | 03:00AM | n/a | 200° | 19 kt | Missing | 22° | 71° | 16° | 60° | 69% | 1016 mb | 784 ft | |||
| 05-Sep | 02:00AM | n/a | 210° | 20 kt | Missing | 22° | 71° | 17° | 62° | 73% | 1016 mb | 784 ft | |||
| 05-Sep | 01:00AM | n/a | 210° | 19 kt | Missing | 22° | 71° | 17° | 62° | 73% | 1017 mb | 754 ft | |||
| 05-Sep | 12:00AM | n/a | 220° | 18 kt | Missing | 22° | 71° | 18° | 64° | 78% | 1017 mb | 754 ft |
Login
| Your browser is unsupported. upgrade your browser |
